sensor_id;sensor_type;location;lat;lon;timestamp;P1;durP1;ratioP1;P2;durP2;ratioP2
69937;SDS011;57248;47.320;15.998;2022-12-29T00:01:28;18.08;;;5.47;;
69937;SDS011;57248;47.320;15.998;2022-12-29T00:04:00;12.57;;;4.70;;
69937;SDS011;57248;47.320;15.998;2022-12-29T00:06:32;17.38;;;5.90;;
69937;SDS011;57248;47.320;15.998;2022-12-29T00:09:04;16.33;;;5.93;;
69937;SDS011;57248;47.320;15.998;2022-12-29T00:11:36;16.80;;;5.72;;
69937;SDS011;57248;47.320;15.998;2022-12-29T00:14:08;14.05;;;5.20;;
69937;SDS011;57248;47.320;15.998;2022-12-29T00:17:00;13.43;;;4.67;;
69937;SDS011;57248;47.320;15.998;2022-12-29T00:19:33;14.20;;;5.30;;
69937;SDS011;57248;47.320;15.998;2022-12-29T00:22:24;16.98;;;5.75;;
69937;SDS011;57248;47.320;15.998;2022-12-29T00:25:15;14.68;;;5.13;;
69937;SDS011;57248;47.320;15.998;2022-12-29T00:28:07;15.43;;;5.72;;
69937;SDS011;57248;47.320;15.998;2022-12-29T00:31:00;14.90;;;5.13;;
69937;SDS011;57248;47.320;15.998;2022-12-29T00:33:51;14.15;;;5.35;;
69937;SDS011;57248;47.320;15.998;2022-12-29T00:36:42;13.57;;;4.78;;
69937;SDS011;57248;47.320;15.998;2022-12-29T00:39:16;12.35;;;4.68;;
69937;SDS011;57248;47.320;15.998;2022-12-29T00:42:14;14.85;;;4.78;;
69937;SDS011;57248;47.320;15.998;2022-12-29T00:45:05;13.77;;;4.63;;
69937;SDS011;57248;47.320;15.998;2022-12-29T00:47:37;12.85;;;4.55;;
69937;SDS011;57248;47.320;15.998;2022-12-29T00:50:09;11.73;;;4.80;;
69937;SDS011;57248;47.320;15.998;2022-12-29T00:52:41;13.23;;;4.45;;
69937;SDS011;57248;47.320;15.998;2022-12-29T00:55:13;11.88;;;4.30;;
69937;SDS011;57248;47.320;15.998;2022-12-29T00:57:45;12.27;;;3.93;;
69937;SDS011;57248;47.320;15.998;2022-12-29T01:00:17;13.70;;;4.65;;
69937;SDS011;57248;47.320;15.998;2022-12-29T01:02:49;14.00;;;4.30;;
69937;SDS011;57248;47.320;15.998;2022-12-29T01:05:21;11.50;;;4.07;;
69937;SDS011;57248;47.320;15.998;2022-12-29T01:07:53;11.70;;;4.35;;
69937;SDS011;57248;47.320;15.998;2022-12-29T01:10:25;13.57;;;4.97;;
69937;SDS011;57248;47.320;15.998;2022-12-29T01:12:57;16.05;;;4.75;;
69937;SDS011;57248;47.320;15.998;2022-12-29T01:15:30;11.50;;;4.82;;
69937;SDS011;57248;47.320;15.998;2022-12-29T01:18:02;13.35;;;4.70;;
69937;SDS011;57248;47.320;15.998;2022-12-29T01:20:34;12.02;;;4.07;;
69937;SDS011;57248;47.320;15.998;2022-12-29T01:23:06;13.40;;;4.30;;
69937;SDS011;57248;47.320;15.998;2022-12-29T01:25:38;10.80;;;4.03;;
69937;SDS011;57248;47.320;15.998;2022-12-29T01:28:03;11.87;;;4.33;;
69937;SDS011;57248;47.320;15.998;2022-12-29T01:30:37;11.83;;;4.17;;
69937;SDS011;57248;47.320;15.998;2022-12-29T01:33:12;10.68;;;3.88;;
69937;SDS011;57248;47.320;15.998;2022-12-29T01:35:44;13.30;;;3.70;;
69937;SDS011;57248;47.320;15.998;2022-12-29T01:38:16;11.70;;;3.80;;
69937;SDS011;57248;47.320;15.998;2022-12-29T01:40:48;12.07;;;3.75;;
69937;SDS011;57248;47.320;15.998;2022-12-29T01:43:41;12.10;;;3.70;;
69937;SDS011;57248;47.320;15.998;2022-12-29T01:49:22;10.07;;;3.53;;
69937;SDS011;57248;47.320;15.998;2022-12-29T01:52:02;10.70;;;3.50;;
69937;SDS011;57248;47.320;15.998;2022-12-29T01:54:46;11.15;;;3.78;;
69937;SDS011;57248;47.320;15.998;2022-12-29T01:57:27;10.27;;;2.97;;
69937;SDS011;57248;47.320;15.998;2022-12-29T02:00:09;9.93;;;3.13;;
69937;SDS011;57248;47.320;15.998;2022-12-29T02:02:46;12.55;;;3.33;;
69937;SDS011;57248;47.320;15.998;2022-12-29T02:05:25;8.20;;;3.22;;
69937;SDS011;57248;47.320;15.998;2022-12-29T02:08:01;9.85;;;3.17;;
69937;SDS011;57248;47.320;15.998;2022-12-29T02:10:34;11.37;;;3.87;;
69937;SDS011;57248;47.320;15.998;2022-12-29T02:13:01;9.98;;;3.60;;
69937;SDS011;57248;47.320;15.998;2022-12-29T02:34:00;9.82;;;2.95;;
69937;SDS011;57248;47.320;15.998;2022-12-29T02:44:55;8.88;;;3.10;;
69937;SDS011;57248;47.320;15.998;2022-12-29T02:50:41;10.32;;;2.75;;
69937;SDS011;57248;47.320;15.998;2022-12-29T02:53:19;8.27;;;2.70;;
69937;SDS011;57248;47.320;15.998;2022-12-29T02:56:12;9.60;;;2.92;;
69937;SDS011;57248;47.320;15.998;2022-12-29T02:58:45;8.82;;;2.90;;
69937;SDS011;57248;47.320;15.998;2022-12-29T03:01:29;9.75;;;2.90;;
69937;SDS011;57248;47.320;15.998;2022-12-29T03:10:28;10.07;;;3.22;;
69937;SDS011;57248;47.320;15.998;2022-12-29T03:13:44;10.02;;;2.88;;
69937;SDS011;57248;47.320;15.998;2022-12-29T03:16:36;7.70;;;2.20;;
69937;SDS011;57248;47.320;15.998;2022-12-29T03:19:19;7.53;;;2.28;;
69937;SDS011;57248;47.320;15.998;2022-12-29T03:21:57;9.90;;;2.87;;
69937;SDS011;57248;47.320;15.998;2022-12-29T03:25:14;8.63;;;2.88;;
69937;SDS011;57248;47.320;15.998;2022-12-29T03:27:58;7.40;;;2.45;;
69937;SDS011;57248;47.320;15.998;2022-12-29T03:30:40;9.48;;;3.20;;
69937;SDS011;57248;47.320;15.998;2022-12-29T03:33:17;9.43;;;3.08;;
69937;SDS011;57248;47.320;15.998;2022-12-29T03:35:55;9.67;;;2.67;;
69937;SDS011;57248;47.320;15.998;2022-12-29T03:38:44;9.93;;;2.88;;
69937;SDS011;57248;47.320;15.998;2022-12-29T03:41:30;8.45;;;2.75;;
69937;SDS011;57248;47.320;15.998;2022-12-29T03:44:05;8.15;;;2.55;;
69937;SDS011;57248;47.320;15.998;2022-12-29T03:46:45;9.65;;;2.88;;
69937;SDS011;57248;47.320;15.998;2022-12-29T03:49:17;9.90;;;3.10;;
69937;SDS011;57248;47.320;15.998;2022-12-29T03:51:49;10.07;;;3.45;;
69937;SDS011;57248;47.320;15.998;2022-12-29T03:54:23;8.60;;;2.92;;
69937;SDS011;57248;47.320;15.998;2022-12-29T03:56:55;9.18;;;2.97;;
69937;SDS011;57248;47.320;15.998;2022-12-29T03:59:37;9.93;;;3.05;;
69937;SDS011;57248;47.320;15.998;2022-12-29T04:02:10;9.80;;;3.40;;
69937;SDS011;57248;47.320;15.998;2022-12-29T04:04:42;7.20;;;2.65;;
69937;SDS011;57248;47.320;15.998;2022-12-29T04:07:14;6.82;;;1.90;;
69937;SDS011;57248;47.320;15.998;2022-12-29T04:09:49;7.70;;;2.20;;
69937;SDS011;57248;47.320;15.998;2022-12-29T04:12:23;7.05;;;2.20;;
69937;SDS011;57248;47.320;15.998;2022-12-29T04:14:48;8.90;;;2.40;;
69937;SDS011;57248;47.320;15.998;2022-12-29T04:17:21;8.07;;;2.53;;
69937;SDS011;57248;47.320;15.998;2022-12-29T04:19:53;7.23;;;1.90;;
69937;SDS011;57248;47.320;15.998;2022-12-29T04:22:45;13.18;;;2.85;;
69937;SDS011;57248;47.320;15.998;2022-12-29T04:25:17;10.30;;;2.95;;
69937;SDS011;57248;47.320;15.998;2022-12-29T04:27:49;8.80;;;2.72;;
69937;SDS011;57248;47.320;15.998;2022-12-29T04:30:42;9.07;;;3.05;;
69937;SDS011;57248;47.320;15.998;2022-12-29T04:33:38;10.97;;;3.30;;
69937;SDS011;57248;47.320;15.998;2022-12-29T04:36:10;11.00;;;3.65;;
69937;SDS011;57248;47.320;15.998;2022-12-29T04:38:42;12.38;;;4.22;;
69937;SDS011;57248;47.320;15.998;2022-12-29T04:41:21;8.93;;;3.38;;
69937;SDS011;57248;47.320;15.998;2022-12-29T04:43:53;9.57;;;3.45;;
69937;SDS011;57248;47.320;15.998;2022-12-29T04:46:37;11.23;;;3.93;;
69937;SDS011;57248;47.320;15.998;2022-12-29T04:49:29;11.63;;;4.00;;
69937;SDS011;57248;47.320;15.998;2022-12-29T04:52:14;12.52;;;3.80;;
69937;SDS011;57248;47.320;15.998;2022-12-29T04:54:46;10.35;;;3.72;;
69937;SDS011;57248;47.320;15.998;2022-12-29T04:57:19;11.88;;;4.28;;
69937;SDS011;57248;47.320;15.998;2022-12-29T04:59:55;9.43;;;3.97;;
69937;SDS011;57248;47.320;15.998;2022-12-29T05:02:27;10.88;;;4.32;;
69937;SDS011;57248;47.320;15.998;2022-12-29T05:04:59;13.45;;;4.75;;
69937;SDS011;57248;47.320;15.998;2022-12-29T05:07:33;14.60;;;5.53;;
69937;SDS011;57248;47.320;15.998;2022-12-29T05:09:59;11.68;;;4.30;;
69937;SDS011;57248;47.320;15.998;2022-12-29T05:12:31;13.27;;;4.17;;
69937;SDS011;57248;47.320;15.998;2022-12-29T05:15:05;12.82;;;4.47;;
69937;SDS011;57248;47.320;15.998;2022-12-29T05:17:39;13.85;;;4.70;;
69937;SDS011;57248;47.320;15.998;2022-12-29T05:20:11;12.23;;;4.43;;
69937;SDS011;57248;47.320;15.998;2022-12-29T05:22:43;11.13;;;3.42;;
69937;SDS011;57248;47.320;15.998;2022-12-29T05:25:15;8.83;;;3.33;;
69937;SDS011;57248;47.320;15.998;2022-12-29T05:28:02;8.95;;;3.20;;
69937;SDS011;57248;47.320;15.998;2022-12-29T05:30:47;9.10;;;3.03;;
69937;SDS011;57248;47.320;15.998;2022-12-29T05:33:21;8.57;;;2.65;;
69937;SDS011;57248;47.320;15.998;2022-12-29T05:35:53;9.63;;;3.05;;
69937;SDS011;57248;47.320;15.998;2022-12-29T05:38:26;12.40;;;4.47;;
69937;SDS011;57248;47.320;15.998;2022-12-29T05:40:58;13.52;;;3.67;;
69937;SDS011;57248;47.320;15.998;2022-12-29T05:44:02;9.40;;;3.47;;
69937;SDS011;57248;47.320;15.998;2022-12-29T05:47:12;12.43;;;5.45;;
69937;SDS011;57248;47.320;15.998;2022-12-29T05:50:02;21.25;;;10.90;;
69937;SDS011;57248;47.320;15.998;2022-12-29T05:52:53;22.50;;;10.13;;
69937;SDS011;57248;47.320;15.998;2022-12-29T05:55:26;18.40;;;9.32;;
69937;SDS011;57248;47.320;15.998;2022-12-29T05:57:58;19.00;;;8.63;;
69937;SDS011;57248;47.320;15.998;2022-12-29T06:00:31;16.70;;;7.47;;
69937;SDS011;57248;47.320;15.998;2022-12-29T06:03:03;15.10;;;6.07;;
69937;SDS011;57248;47.320;15.998;2022-12-29T06:05:35;8.87;;;3.20;;
69937;SDS011;57248;47.320;15.998;2022-12-29T06:08:08;8.90;;;3.35;;
69937;SDS011;57248;47.320;15.998;2022-12-29T06:10:33;8.07;;;2.92;;
69937;SDS011;57248;47.320;15.998;2022-12-29T06:13:06;11.33;;;3.23;;
69937;SDS011;57248;47.320;15.998;2022-12-29T06:15:42;8.07;;;3.50;;
69937;SDS011;57248;47.320;15.998;2022-12-29T06:18:14;10.15;;;3.70;;
69937;SDS011;57248;47.320;15.998;2022-12-29T06:20:47;8.07;;;2.90;;
69937;SDS011;57248;47.320;15.998;2022-12-29T06:23:21;9.93;;;2.58;;
69937;SDS011;57248;47.320;15.998;2022-12-29T06:25:47;7.57;;;2.93;;
69937;SDS011;57248;47.320;15.998;2022-12-29T06:28:20;9.13;;;2.95;;
69937;SDS011;57248;47.320;15.998;2022-12-29T06:30:53;11.17;;;3.53;;
69937;SDS011;57248;47.320;15.998;2022-12-29T06:33:26;10.80;;;3.70;;
69937;SDS011;57248;47.320;15.998;2022-12-29T06:35:58;10.70;;;3.67;;
69937;SDS011;57248;47.320;15.998;2022-12-29T06:38:30;12.20;;;4.00;;
69937;SDS011;57248;47.320;15.998;2022-12-29T06:41:02;9.52;;;3.88;;
69937;SDS011;57248;47.320;15.998;2022-12-29T06:43:34;10.77;;;3.67;;
69937;SDS011;57248;47.320;15.998;2022-12-29T06:46:31;10.38;;;3.65;;
69937;SDS011;57248;47.320;15.998;2022-12-29T06:49:04;13.23;;;3.97;;
69937;SDS011;57248;47.320;15.998;2022-12-29T06:51:29;10.10;;;3.80;;
69937;SDS011;57248;47.320;15.998;2022-12-29T06:54:01;9.55;;;2.95;;
69937;SDS011;57248;47.320;15.998;2022-12-29T06:56:33;8.98;;;3.20;;
69937;SDS011;57248;47.320;15.998;2022-12-29T06:58:58;10.47;;;3.63;;
69937;SDS011;57248;47.320;15.998;2022-12-29T07:01:32;13.35;;;4.85;;
69937;SDS011;57248;47.320;15.998;2022-12-29T07:04:04;12.20;;;4.75;;
69937;SDS011;57248;47.320;15.998;2022-12-29T07:06:37;13.60;;;5.07;;
69937;SDS011;57248;47.320;15.998;2022-12-29T07:09:09;11.73;;;4.20;;
69937;SDS011;57248;47.320;15.998;2022-12-29T07:11:42;13.75;;;5.05;;
69937;SDS011;57248;47.320;15.998;2022-12-29T07:14:14;12.40;;;4.10;;
69937;SDS011;57248;47.320;15.998;2022-12-29T07:16:47;15.27;;;5.22;;
69937;SDS011;57248;47.320;15.998;2022-12-29T07:19:20;14.07;;;5.20;;
69937;SDS011;57248;47.320;15.998;2022-12-29T07:21:53;12.27;;;4.82;;
69937;SDS011;57248;47.320;15.998;2022-12-29T07:24:26;12.02;;;5.05;;
69937;SDS011;57248;47.320;15.998;2022-12-29T07:26:53;14.32;;;4.97;;
69937;SDS011;57248;47.320;15.998;2022-12-29T07:29:25;17.20;;;5.60;;
69937;SDS011;57248;47.320;15.998;2022-12-29T07:31:57;15.93;;;6.40;;
69937;SDS011;57248;47.320;15.998;2022-12-29T07:34:29;21.35;;;8.00;;
69937;SDS011;57248;47.320;15.998;2022-12-29T07:37:01;14.52;;;6.32;;
69937;SDS011;57248;47.320;15.998;2022-12-29T07:39:33;14.05;;;5.82;;
69937;SDS011;57248;47.320;15.998;2022-12-29T07:42:12;14.73;;;6.20;;
69937;SDS011;57248;47.320;15.998;2022-12-29T07:44:49;15.67;;;6.50;;
69937;SDS011;57248;47.320;15.998;2022-12-29T07:47:34;16.85;;;7.10;;
69937;SDS011;57248;47.320;15.998;2022-12-29T07:50:07;15.60;;;6.50;;
69937;SDS011;57248;47.320;15.998;2022-12-29T07:52:39;20.52;;;8.32;;
69937;SDS011;57248;47.320;15.998;2022-12-29T07:55:11;19.38;;;8.32;;
69937;SDS011;57248;47.320;15.998;2022-12-29T07:57:43;51.13;;;20.47;;
69937;SDS011;57248;47.320;15.998;2022-12-29T08:00:15;33.47;;;14.10;;
69937;SDS011;57248;47.320;15.998;2022-12-29T08:02:47;30.08;;;13.48;;
69937;SDS011;57248;47.320;15.998;2022-12-29T08:05:19;27.20;;;12.70;;
69937;SDS011;57248;47.320;15.998;2022-12-29T08:07:51;29.02;;;13.55;;
69937;SDS011;57248;47.320;15.998;2022-12-29T08:10:23;20.80;;;10.17;;
69937;SDS011;57248;47.320;15.998;2022-12-29T08:12:55;22.33;;;10.90;;
69937;SDS011;57248;47.320;15.998;2022-12-29T08:15:27;40.55;;;15.27;;
69937;SDS011;57248;47.320;15.998;2022-12-29T08:17:59;30.48;;;12.00;;
69937;SDS011;57248;47.320;15.998;2022-12-29T08:20:31;17.60;;;7.70;;
69937;SDS011;57248;47.320;15.998;2022-12-29T08:23:03;18.83;;;7.60;;
69937;SDS011;57248;47.320;15.998;2022-12-29T08:25:35;20.52;;;7.63;;
69937;SDS011;57248;47.320;15.998;2022-12-29T08:28:00;15.73;;;7.27;;
69937;SDS011;57248;47.320;15.998;2022-12-29T08:30:32;15.73;;;7.30;;
69937;SDS011;57248;47.320;15.998;2022-12-29T08:33:05;17.08;;;7.05;;
69937;SDS011;57248;47.320;15.998;2022-12-29T08:35:37;16.88;;;8.18;;
69937;SDS011;57248;47.320;15.998;2022-12-29T08:38:04;20.90;;;9.18;;
69937;SDS011;57248;47.320;15.998;2022-12-29T08:40:36;15.27;;;7.43;;
69937;SDS011;57248;47.320;15.998;2022-12-29T08:43:15;17.10;;;7.88;;
69937;SDS011;57248;47.320;15.998;2022-12-29T08:45:47;22.45;;;12.15;;
69937;SDS011;57248;47.320;15.998;2022-12-29T08:48:20;16.90;;;8.88;;
69937;SDS011;57248;47.320;15.998;2022-12-29T08:50:53;16.52;;;8.45;;
69937;SDS011;57248;47.320;15.998;2022-12-29T08:53:18;14.57;;;5.83;;
69937;SDS011;57248;47.320;15.998;2022-12-29T08:55:59;12.35;;;5.90;;
69937;SDS011;57248;47.320;15.998;2022-12-29T08:58:42;12.13;;;6.60;;
69937;SDS011;57248;47.320;15.998;2022-12-29T09:01:16;15.10;;;7.07;;
69937;SDS011;57248;47.320;15.998;2022-12-29T09:03:48;11.57;;;6.65;;
69937;SDS011;57248;47.320;15.998;2022-12-29T09:06:21;11.60;;;7.50;;
69937;SDS011;57248;47.320;15.998;2022-12-29T09:08:53;22.60;;;11.02;;
69937;SDS011;57248;47.320;15.998;2022-12-29T09:11:26;13.73;;;7.10;;
69937;SDS011;57248;47.320;15.998;2022-12-29T09:13:58;11.67;;;6.23;;
69937;SDS011;57248;47.320;15.998;2022-12-29T09:16:30;11.93;;;6.10;;
69937;SDS011;57248;47.320;15.998;2022-12-29T09:19:02;10.75;;;5.75;;
69937;SDS011;57248;47.320;15.998;2022-12-29T09:21:35;10.43;;;6.03;;
69937;SDS011;57248;47.320;15.998;2022-12-29T09:24:07;12.82;;;7.40;;
69937;SDS011;57248;47.320;15.998;2022-12-29T09:26:39;15.23;;;9.57;;
69937;SDS011;57248;47.320;15.998;2022-12-29T09:29:12;10.77;;;5.72;;
69937;SDS011;57248;47.320;15.998;2022-12-29T09:31:44;11.30;;;6.50;;
69937;SDS011;57248;47.320;15.998;2022-12-29T09:34:16;11.15;;;6.22;;
69937;SDS011;57248;47.320;15.998;2022-12-29T09:36:48;11.15;;;6.20;;
69937;SDS011;57248;47.320;15.998;2022-12-29T09:39:20;9.00;;;5.70;;
69937;SDS011;57248;47.320;15.998;2022-12-29T09:41:55;13.32;;;8.07;;
69937;SDS011;57248;47.320;15.998;2022-12-29T09:47:42;12.30;;;7.35;;
69937;SDS011;57248;47.320;15.998;2022-12-29T09:55:50;13.77;;;7.63;;
69937;SDS011;57248;47.320;15.998;2022-12-29T10:01:27;15.05;;;7.00;;
69937;SDS011;57248;47.320;15.998;2022-12-29T10:04:03;12.40;;;7.43;;
69937;SDS011;57248;47.320;15.998;2022-12-29T10:15:09;12.32;;;6.88;;
69937;SDS011;57248;47.320;15.998;2022-12-29T10:20:58;10.07;;;5.77;;
69937;SDS011;57248;47.320;15.998;2022-12-29T10:23:40;11.63;;;6.07;;
69937;SDS011;57248;47.320;15.998;2022-12-29T10:26:17;9.65;;;5.47;;
69937;SDS011;57248;47.320;15.998;2022-12-29T10:28:56;8.63;;;4.78;;
69937;SDS011;57248;47.320;15.998;2022-12-29T10:31:38;9.02;;;5.03;;
69937;SDS011;57248;47.320;15.998;2022-12-29T10:34:19;10.40;;;6.00;;
69937;SDS011;57248;47.320;15.998;2022-12-29T10:37:10;11.57;;;6.30;;
69937;SDS011;57248;47.320;15.998;2022-12-29T10:39:50;12.07;;;7.00;;
69937;SDS011;57248;47.320;15.998;2022-12-29T10:42:41;11.93;;;7.65;;
69937;SDS011;57248;47.320;15.998;2022-12-29T10:45:17;15.55;;;8.40;;
69937;SDS011;57248;47.320;15.998;2022-12-29T10:48:03;13.90;;;8.20;;
69937;SDS011;57248;47.320;15.998;2022-12-29T10:50:41;13.30;;;8.02;;
69937;SDS011;57248;47.320;15.998;2022-12-29T10:53:07;11.05;;;6.72;;
69937;SDS011;57248;47.320;15.998;2022-12-29T10:55:49;11.98;;;6.95;;
69937;SDS011;57248;47.320;15.998;2022-12-29T10:58:22;14.95;;;7.50;;
69937;SDS011;57248;47.320;15.998;2022-12-29T11:00:55;9.60;;;5.93;;
69937;SDS011;57248;47.320;15.998;2022-12-29T11:06:38;12.90;;;6.88;;
69937;SDS011;57248;47.320;15.998;2022-12-29T11:09:15;10.52;;;5.45;;
69937;SDS011;57248;47.320;15.998;2022-12-29T11:11:59;8.65;;;4.63;;
69937;SDS011;57248;47.320;15.998;2022-12-29T11:14:31;9.57;;;5.10;;
69937;SDS011;57248;47.320;15.998;2022-12-29T11:17:03;8.55;;;5.10;;
69937;SDS011;57248;47.320;15.998;2022-12-29T11:19:36;8.77;;;5.55;;
69937;SDS011;57248;47.320;15.998;2022-12-29T11:25:05;9.98;;;5.43;;
69937;SDS011;57248;47.320;15.998;2022-12-29T11:27:42;10.97;;;5.50;;
69937;SDS011;57248;47.320;15.998;2022-12-29T11:30:28;9.98;;;5.80;;
69937;SDS011;57248;47.320;15.998;2022-12-29T11:33:02;10.48;;;5.97;;
69937;SDS011;57248;47.320;15.998;2022-12-29T11:35:38;12.32;;;5.95;;
69937;SDS011;57248;47.320;15.998;2022-12-29T11:38:19;10.20;;;5.75;;
69937;SDS011;57248;47.320;15.998;2022-12-29T11:41:00;9.57;;;6.00;;
69937;SDS011;57248;47.320;15.998;2022-12-29T11:43:43;8.98;;;5.43;;
69937;SDS011;57248;47.320;15.998;2022-12-29T11:46:22;10.25;;;5.65;;
69937;SDS011;57248;47.320;15.998;2022-12-29T11:49:03;10.60;;;5.80;;
69937;SDS011;57248;47.320;15.998;2022-12-29T11:51:42;9.52;;;6.18;;
69937;SDS011;57248;47.320;15.998;2022-12-29T11:54:20;8.93;;;5.80;;
69937;SDS011;57248;47.320;15.998;2022-12-29T11:56:53;8.82;;;5.80;;
69937;SDS011;57248;47.320;15.998;2022-12-29T12:05:50;9.25;;;5.80;;
69937;SDS011;57248;47.320;15.998;2022-12-29T12:16:16;7.72;;;4.93;;
69937;SDS011;57248;47.320;15.998;2022-12-29T12:18:59;11.63;;;6.60;;
69937;SDS011;57248;47.320;15.998;2022-12-29T12:21:39;10.47;;;6.10;;
69937;SDS011;57248;47.320;15.998;2022-12-29T12:27:20;13.77;;;9.00;;
69937;SDS011;57248;47.320;15.998;2022-12-29T12:30:04;8.65;;;5.22;;
69937;SDS011;57248;47.320;15.998;2022-12-29T12:32:54;6.80;;;4.30;;
69937;SDS011;57248;47.320;15.998;2022-12-29T12:35:35;8.00;;;4.60;;
69937;SDS011;57248;47.320;15.998;2022-12-29T12:44:38;12.40;;;5.18;;
69937;SDS011;57248;47.320;15.998;2022-12-29T12:56:13;6.68;;;3.85;;
69937;SDS011;57248;47.320;15.998;2022-12-29T13:10:22;7.63;;;4.07;;
69937;SDS011;57248;47.320;15.998;2022-12-29T13:16:06;7.13;;;4.05;;
69937;SDS011;57248;47.320;15.998;2022-12-29T13:18:52;7.63;;;4.47;;
69937;SDS011;57248;47.320;15.998;2022-12-29T13:24:50;9.65;;;4.10;;
69937;SDS011;57248;47.320;15.998;2022-12-29T13:30:40;8.40;;;4.35;;
69937;SDS011;57248;47.320;15.998;2022-12-29T13:33:38;10.20;;;4.07;;
69937;SDS011;57248;47.320;15.998;2022-12-29T13:41:53;7.22;;;3.90;;
69937;SDS011;57248;47.320;15.998;2022-12-29T13:44:28;11.90;;;4.75;;
69937;SDS011;57248;47.320;15.998;2022-12-29T13:50:12;7.88;;;4.15;;
69937;SDS011;57248;47.320;15.998;2022-12-29T13:56:08;9.98;;;4.28;;
69937;SDS011;57248;47.320;15.998;2022-12-29T13:58:53;8.77;;;4.15;;
69937;SDS011;57248;47.320;15.998;2022-12-29T14:04:12;7.47;;;3.75;;
69937;SDS011;57248;47.320;15.998;2022-12-29T14:06:45;9.50;;;4.30;;
69937;SDS011;57248;47.320;15.998;2022-12-29T14:17:42;9.45;;;4.60;;
69937;SDS011;57248;47.320;15.998;2022-12-29T14:20:17;10.02;;;5.03;;
69937;SDS011;57248;47.320;15.998;2022-12-29T14:25:57;13.55;;;6.47;;
69937;SDS011;57248;47.320;15.998;2022-12-29T14:28:39;11.63;;;5.90;;
69937;SDS011;57248;47.320;15.998;2022-12-29T14:44:52;15.75;;;6.82;;
69937;SDS011;57248;47.320;15.998;2022-12-29T14:47:37;12.57;;;6.30;;
69937;SDS011;57248;47.320;15.998;2022-12-29T14:52:48;11.27;;;4.65;;
69937;SDS011;57248;47.320;15.998;2022-12-29T14:58:16;11.70;;;4.70;;
69937;SDS011;57248;47.320;15.998;2022-12-29T15:00:52;10.25;;;4.70;;
69937;SDS011;57248;47.320;15.998;2022-12-29T15:03:29;11.52;;;5.00;;
69937;SDS011;57248;47.320;15.998;2022-12-29T15:06:08;16.23;;;6.07;;
69937;SDS011;57248;47.320;15.998;2022-12-29T15:09:34;18.50;;;7.63;;
69937;SDS011;57248;47.320;15.998;2022-12-29T15:11:57;15.07;;;6.32;;
69937;SDS011;57248;47.320;15.998;2022-12-29T15:14:36;11.75;;;4.93;;
69937;SDS011;57248;47.320;15.998;2022-12-29T15:17:27;10.98;;;4.32;;
69937;SDS011;57248;47.320;15.998;2022-12-29T15:20:17;9.45;;;3.97;;
69937;SDS011;57248;47.320;15.998;2022-12-29T15:23:10;11.27;;;4.13;;
69937;SDS011;57248;47.320;15.998;2022-12-29T15:25:47;9.65;;;3.72;;
69937;SDS011;57248;47.320;15.998;2022-12-29T15:28:27;10.50;;;4.15;;
69937;SDS011;57248;47.320;15.998;2022-12-29T15:31:13;10.48;;;4.30;;
69937;SDS011;57248;47.320;15.998;2022-12-29T15:33:49;10.48;;;4.40;;
69937;SDS011;57248;47.320;15.998;2022-12-29T15:36:24;9.23;;;4.07;;
69937;SDS011;57248;47.320;15.998;2022-12-29T15:38:58;12.80;;;5.53;;
69937;SDS011;57248;47.320;15.998;2022-12-29T15:41:47;13.73;;;5.35;;
69937;SDS011;57248;47.320;15.998;2022-12-29T15:44:39;15.50;;;5.85;;
69937;SDS011;57248;47.320;15.998;2022-12-29T15:47:16;15.43;;;5.65;;
69937;SDS011;57248;47.320;15.998;2022-12-29T15:49:53;13.87;;;5.53;;
69937;SDS011;57248;47.320;15.998;2022-12-29T15:52:34;11.98;;;4.80;;
69937;SDS011;57248;47.320;15.998;2022-12-29T15:55:20;11.55;;;4.63;;
69937;SDS011;57248;47.320;15.998;2022-12-29T15:58:03;13.85;;;5.75;;
69937;SDS011;57248;47.320;15.998;2022-12-29T16:00:37;12.57;;;5.18;;
69937;SDS011;57248;47.320;15.998;2022-12-29T16:03:10;13.30;;;5.53;;
69937;SDS011;57248;47.320;15.998;2022-12-29T16:05:56;16.58;;;6.68;;
69937;SDS011;57248;47.320;15.998;2022-12-29T16:08:40;15.15;;;5.43;;
69937;SDS011;57248;47.320;15.998;2022-12-29T16:11:23;14.55;;;5.75;;
69937;SDS011;57248;47.320;15.998;2022-12-29T16:14:12;13.88;;;5.97;;
69937;SDS011;57248;47.320;15.998;2022-12-29T16:16:49;13.73;;;5.43;;
69937;SDS011;57248;47.320;15.998;2022-12-29T16:19:24;14.07;;;5.72;;
69937;SDS011;57248;47.320;15.998;2022-12-29T16:22:00;13.10;;;6.10;;
69937;SDS011;57248;47.320;15.998;2022-12-29T16:24:36;18.27;;;7.25;;
69937;SDS011;57248;47.320;15.998;2022-12-29T16:29:54;12.10;;;5.30;;
69937;SDS011;57248;47.320;15.998;2022-12-29T16:32:28;12.35;;;5.10;;
69937;SDS011;57248;47.320;15.998;2022-12-29T16:38:10;12.07;;;5.40;;
69937;SDS011;57248;47.320;15.998;2022-12-29T16:40:55;14.52;;;6.15;;
69937;SDS011;57248;47.320;15.998;2022-12-29T16:43:34;15.47;;;6.00;;
69937;SDS011;57248;47.320;15.998;2022-12-29T16:46:28;15.18;;;6.00;;
69937;SDS011;57248;47.320;15.998;2022-12-29T16:49:13;16.55;;;6.57;;
69937;SDS011;57248;47.320;15.998;2022-12-29T16:51:47;13.70;;;6.00;;
69937;SDS011;57248;47.320;15.998;2022-12-29T16:54:24;13.35;;;5.90;;
69937;SDS011;57248;47.320;15.998;2022-12-29T16:57:07;14.20;;;5.37;;
69937;SDS011;57248;47.320;15.998;2022-12-29T16:59:40;12.65;;;5.72;;
69937;SDS011;57248;47.320;15.998;2022-12-29T17:02:15;12.73;;;5.57;;
69937;SDS011;57248;47.320;15.998;2022-12-29T17:04:50;16.05;;;6.05;;
69937;SDS011;57248;47.320;15.998;2022-12-29T17:07:25;16.40;;;6.47;;
69937;SDS011;57248;47.320;15.998;2022-12-29T17:09:58;13.47;;;6.30;;
69937;SDS011;57248;47.320;15.998;2022-12-29T17:12:30;12.85;;;5.22;;
69937;SDS011;57248;47.320;15.998;2022-12-29T17:15:06;12.45;;;5.13;;
69937;SDS011;57248;47.320;15.998;2022-12-29T17:17:46;14.02;;;5.72;;
69937;SDS011;57248;47.320;15.998;2022-12-29T17:20:22;12.63;;;5.13;;
69937;SDS011;57248;47.320;15.998;2022-12-29T17:23:00;11.60;;;4.60;;
69937;SDS011;57248;47.320;15.998;2022-12-29T17:25:33;13.73;;;4.72;;
69937;SDS011;57248;47.320;15.998;2022-12-29T17:28:12;19.15;;;6.82;;
69937;SDS011;57248;47.320;15.998;2022-12-29T17:30:51;14.93;;;5.85;;
69937;SDS011;57248;47.320;15.998;2022-12-29T17:33:25;14.65;;;5.18;;
69937;SDS011;57248;47.320;15.998;2022-12-29T17:35:58;14.13;;;4.80;;
69937;SDS011;57248;47.320;15.998;2022-12-29T17:38:31;21.38;;;7.25;;
69937;SDS011;57248;47.320;15.998;2022-12-29T17:41:10;23.80;;;7.85;;
69937;SDS011;57248;47.320;15.998;2022-12-29T17:43:52;35.00;;;12.38;;
69937;SDS011;57248;47.320;15.998;2022-12-29T17:46:25;39.03;;;12.65;;
69937;SDS011;57248;47.320;15.998;2022-12-29T17:49:04;34.37;;;11.20;;
69937;SDS011;57248;47.320;15.998;2022-12-29T17:51:41;32.53;;;10.73;;
69937;SDS011;57248;47.320;15.998;2022-12-29T17:54:18;19.25;;;7.13;;
69937;SDS011;57248;47.320;15.998;2022-12-29T17:56:52;16.42;;;5.68;;
69937;SDS011;57248;47.320;15.998;2022-12-29T17:59:17;17.03;;;6.20;;
69937;SDS011;57248;47.320;15.998;2022-12-29T18:01:50;21.40;;;7.57;;
69937;SDS011;57248;47.320;15.998;2022-12-29T18:04:22;17.58;;;6.63;;
69937;SDS011;57248;47.320;15.998;2022-12-29T18:06:54;16.47;;;6.50;;
69937;SDS011;57248;47.320;15.998;2022-12-29T18:09:27;14.52;;;5.80;;
69937;SDS011;57248;47.320;15.998;2022-12-29T18:11:59;12.73;;;5.07;;
69937;SDS011;57248;47.320;15.998;2022-12-29T18:14:32;14.40;;;5.28;;